Time;durP1;ratioP1;P1;durP2;ratioP2;P2;SDS_P1;SDS_P2;PMS_P1;PMS_P2;Temp;Humidity;BMP_temperature;BMP_pressure;BME280_temperature;BME280_humidity;BME280_pressure;Samples;Min_cycle;Max_cycle;Signal;HPM_P1;HPM_P2
2022/09/20 00:00:38;;;;;;;1999.90;999.90;;;;;;;-144.65;100.00;64500.88;4999316;28;20098;-78
2022/09/20 00:03:04;;;;;;;1999.90;999.90;;;;;;;-144.65;100.00;64500.88;5016266;28;20029;-78
2022/09/20 00:05:33;;;;;;;1999.90;999.90;;;;;;;-144.65;100.00;64500.88;5014578;28;20080;-76
2022/09/20 00:07:59;;;;;;;1999.90;999.90;;;;;;;-144.65;100.00;64500.88;4995218;28;20410;-76
2022/09/20 00:10:26;;;;;;;1999.90;999.90;;;;;;;-144.65;100.00;64500.88;5020479;28;20041;-78
2022/09/20 00:12:51;;;;;;;1999.90;999.90;;;;;;;-144.65;100.00;64500.88;5022695;28;20097;-77
2022/09/20 00:15:17;;;;;;;1999.90;999.90;;;;;;;-144.65;100.00;64500.88;5021072;28;20077;-77
2022/09/20 00:17:42;;;;;;;1999.90;999.90;;;;;;;-144.65;100.00;64500.88;5012229;28;20125;-77
2022/09/20 00:20:08;;;;;;;1999.90;999.90;;;;;;;-144.65;100.00;64500.88;5012150;28;20529;-77
2022/09/20 00:22:33;;;;;;;1999.90;999.90;;;;;;;-144.65;100.00;64500.88;5013878;28;20030;-77
2022/09/20 00:24:58;;;;;;;1999.90;999.90;;;;;;;-144.65;100.00;64500.88;4995438;28;20093;-77
2022/09/20 00:27:23;;;;;;;1999.90;999.90;;;;;;;-144.65;100.00;64500.88;4976602;28;20533;-78
2022/09/20 00:29:49;;;;;;;1999.90;999.90;;;;;;;-144.65;100.00;64500.88;4976422;28;20030;-78
2022/09/20 00:32:14;;;;;;;1999.90;999.90;;;;;;;-144.65;100.00;64500.88;4994618;28;20030;-77
2022/09/20 00:37:23;;;;;;;1999.90;999.90;;;;;;;-144.65;100.00;64500.88;4994250;28;20549;-78
2022/09/20 00:39:49;;;;;;;1999.90;999.90;;;;;;;-144.65;100.00;64500.88;4993934;28;20046;-77
2022/09/20 00:42:15;;;;;;;1999.90;999.90;;;;;;;-144.65;100.00;64500.88;4994592;28;20469;-77
2022/09/20 00:44:50;;;;;;;1999.90;999.90;;;;;;;-144.65;100.00;64500.88;4994256;28;20014;-78
2022/09/20 00:47:23;;;;;;;1999.90;999.90;;;;;;;-144.65;100.00;64500.88;4977595;28;20030;-78
2022/09/20 00:49:51;;;;;;;1999.90;999.90;;;;;;;-144.65;100.00;64500.88;4993713;28;20032;-78
2022/09/20 00:52:16;;;;;;;1999.90;999.90;;;;;;;-144.65;100.00;64500.88;4993705;28;20030;-77
2022/09/20 00:54:43;;;;;;;1999.90;999.90;;;;;;;-144.65;100.00;64500.88;4994437;28;20701;-77
2022/09/20 00:57:09;;;;;;;1999.90;999.90;;;;;;;-144.65;100.00;64500.88;4996564;28;20490;-77
2022/09/20 00:59:42;;;;;;;1999.90;999.90;;;;;;;-144.65;100.00;64500.88;4998404;28;20158;-78
2022/09/20 01:02:22;;;;;;;1999.90;999.90;;;;;;;-144.65;100.00;64500.88;5001165;28;20065;-77
2022/09/20 01:04:49;;;;;;;1999.90;999.90;;;;;;;-144.65;100.00;64500.88;4995206;28;20105;-77
2022/09/20 01:07:21;;;;;;;1999.90;999.90;;;;;;;-144.65;100.00;64500.88;4996262;28;20202;-77
2022/09/20 01:09:46;;;;;;;1999.90;999.90;;;;;;;-144.65;100.00;64500.88;4994831;28;20038;-77
2022/09/20 01:12:16;;;;;;;1999.90;999.90;;;;;;;-144.65;100.00;64500.88;4994147;28;20045;-77
2022/09/20 01:14:45;;;;;;;1999.90;999.90;;;;;;;-144.65;100.00;64500.88;4994230;28;20022;-78
2022/09/20 01:17:11;;;;;;;1999.90;999.90;;;;;;;-144.65;100.00;64500.88;4998815;28;20026;-78
2022/09/20 01:19:46;;;;;;;1999.90;999.90;;;;;;;-144.65;100.00;64500.88;5013159;28;20367;-77
2022/09/20 01:22:26;;;;;;;1999.90;999.90;;;;;;;-144.65;100.00;64500.88;5014138;28;20032;-77
2022/09/20 01:25:03;;;;;;;1999.90;999.90;;;;;;;-144.65;100.00;64500.88;5014211;28;20041;-78
2022/09/20 01:27:46;;;;;;;1999.90;999.90;;;;;;;-144.65;100.00;64500.88;5013881;28;20500;-79
2022/09/20 01:30:29;;;;;;;1999.90;999.90;;;;;;;-144.65;100.00;64500.88;5007263;28;20045;-78
2022/09/20 01:33:22;;;;;;;1999.90;999.90;;;;;;;-144.65;100.00;64500.88;4995965;28;20046;-78
2022/09/20 01:35:52;;;;;;;1999.90;999.90;;;;;;;-144.65;100.00;64500.88;5014119;28;20525;-77
2022/09/20 01:38:42;;;;;;;1999.90;999.90;;;;;;;-144.65;100.00;64500.88;5014783;28;20030;-77
2022/09/20 01:41:17;;;;;;;1999.90;999.90;;;;;;;-144.65;100.00;64500.88;5016224;28;20026;-78
2022/09/20 01:43:50;;;;;;;;;;;;;;;-144.65;100.00;64500.88;5018519;28;20022;-77
2022/09/20 01:46:30;;;;;;;1999.90;999.90;;;;;;;-144.65;100.00;64500.88;5013183;28;20013;-78
2022/09/20 01:49:20;;;;;;;1999.90;999.90;;;;;;;-144.65;100.00;64500.88;4980706;28;20046;-78
2022/09/20 01:52:04;;;;;;;1999.90;999.90;;;;;;;-144.65;100.00;64500.88;4999073;28;20037;-77
2022/09/20 01:54:56;;;;;;;1999.90;999.90;;;;;;;-144.65;100.00;64500.88;4999336;28;20062;-78
2022/09/20 01:57:58;;;;;;;1999.90;999.90;;;;;;;-144.65;100.00;64500.88;4999495;28;20041;-77
2022/09/20 02:00:44;;;;;;;1999.90;999.90;;;;;;;-144.65;100.00;64500.88;4999469;28;20034;-79
2022/09/20 02:03:48;;;;;;;1999.90;999.90;;;;;;;-144.65;100.00;64500.88;4999071;28;20026;-77
2022/09/20 02:06:36;;;;;;;1999.90;999.90;;;;;;;-144.65;100.00;64500.88;4998199;28;20027;-78
2022/09/20 02:09:29;;;;;;;1999.90;999.90;;;;;;;-144.65;100.00;64500.88;4998153;28;20082;-78
2022/09/20 02:12:13;;;;;;;1999.90;999.90;;;;;;;-144.65;100.00;64500.88;4999245;28;20046;-77
2022/09/20 02:14:39;;;;;;;1999.90;999.90;;;;;;;-144.65;100.00;64500.88;5016017;28;20521;-78
2022/09/20 02:17:27;;;;;;;1999.90;999.90;;;;;;;-144.65;100.00;64500.88;5018831;28;20430;-78
2022/09/20 02:20:33;;;;;;;1999.90;999.90;;;;;;;-144.65;100.00;64500.88;5019781;28;20128;-78
2022/09/20 02:23:21;;;;;;;1999.90;999.90;;;;;;;-144.65;100.00;64500.88;5002057;28;20072;-79
2022/09/20 02:25:52;;;;;;;1999.90;999.90;;;;;;;-144.65;100.00;64500.88;5018276;28;20038;-78
2022/09/20 02:28:52;;;;;;;1999.90;999.90;;;;;;;-144.65;100.00;64500.88;5000031;28;20038;-78
2022/09/20 02:31:50;;;;;;;1999.90;999.90;;;;;;;-144.65;100.00;64500.88;4958290;28;20576;-78
2022/09/20 02:34:34;;;;;;;1999.90;999.90;;;;;;;-144.65;100.00;64500.88;5012980;28;20097;-77
2022/09/20 02:37:33;;;;;;;1999.90;999.90;;;;;;;-144.65;100.00;64500.88;5020821;28;20061;-77
2022/09/20 02:40:17;;;;;;;1999.90;999.90;;;;;;;-144.65;100.00;64500.88;5021741;28;20069;-78
2022/09/20 02:43:13;;;;;;;1999.90;999.90;;;;;;;-144.65;100.00;64500.88;5017570;28;20076;-78
2022/09/20 02:45:57;;;;;;;1999.90;999.90;;;;;;;-144.65;100.00;64500.88;5017005;28;20029;-78
2022/09/20 02:48:38;;;;;;;1999.90;999.90;;;;;;;-144.65;100.00;64500.88;5016937;28;20034;-78
2022/09/20 02:51:19;;;;;;;1999.90;999.90;;;;;;;-144.65;100.00;64500.88;5019321;28;20026;-77
2022/09/20 02:54:02;;;;;;;1999.90;999.90;;;;;;;-144.65;100.00;64500.88;5006209;28;20026;-78
2022/09/20 02:56:40;;;;;;;1999.90;999.90;;;;;;;-144.65;100.00;64500.88;5018967;28;20084;-78
2022/09/20 02:59:19;;;;;;;1999.90;999.90;;;;;;;-144.65;100.00;64500.88;5001992;28;20033;-78
2022/09/20 03:02:02;;;;;;;1999.90;999.90;;;;;;;-144.65;100.00;64500.88;5019177;28;20077;-78
2022/09/20 03:05:06;;;;;;;1999.90;999.90;;;;;;;-144.65;100.00;64500.88;5019002;28;20045;-78
2022/09/20 03:07:45;;;;;;;1999.90;999.90;;;;;;;-144.65;100.00;64500.88;5018423;28;20510;-78
2022/09/20 03:10:40;;;;;;;1999.90;999.90;;;;;;;-144.65;100.00;64500.88;5017734;28;20046;-78
2022/09/20 03:13:30;;;;;;;1999.90;999.90;;;;;;;-144.65;100.00;64500.88;5016827;28;20050;-77
2022/09/20 03:16:07;;;;;;;1999.90;999.90;;;;;;;-144.65;100.00;64500.88;5016889;28;20033;-78
2022/09/20 03:18:56;;;;;;;1999.90;999.90;;;;;;;-144.65;100.00;64500.88;5015347;28;20030;-78
2022/09/20 03:21:21;;;;;;;1999.90;999.90;;;;;;;-144.65;100.00;64500.88;4996165;28;20060;-78
2022/09/20 03:24:02;;;;;;;1999.90;999.90;;;;;;;-144.65;100.00;64500.88;4997361;28;20030;-78
2022/09/20 03:26:51;;;;;;;1999.90;999.90;;;;;;;-144.65;100.00;64500.88;4979709;28;20053;-77
2022/09/20 03:29:52;;;;;;;1999.90;999.90;;;;;;;-144.65;100.00;64500.88;4996758;28;20398;-77
2022/09/20 03:32:46;;;;;;;1999.90;999.90;;;;;;;-144.65;100.00;64500.88;4996163;28;20502;-77
2022/09/20 03:35:39;;;;;;;1999.90;999.90;;;;;;;-144.65;100.00;64500.88;4996782;28;20034;-77
2022/09/20 03:38:37;;;;;;;1999.90;999.90;;;;;;;-144.65;100.00;64500.88;4979776;28;20037;-78
2022/09/20 03:41:37;;;;;;;1999.90;999.90;;;;;;;-144.65;100.00;64500.88;4979649;28;20056;-77
2022/09/20 03:44:18;;;;;;;1999.90;999.90;;;;;;;-144.65;100.00;64500.88;4980065;28;20030;-78
2022/09/20 03:46:48;;;;;;;1999.90;999.90;;;;;;;-144.65;100.00;64500.88;4999700;28;20049;-78
2022/09/20 03:49:59;;;;;;;1999.90;999.90;;;;;;;-144.65;100.00;64500.88;5012998;28;20121;-78
2022/09/20 03:52:44;;;;;;;1999.90;999.90;;;;;;;-144.65;100.00;64500.88;5017044;28;20037;-78
2022/09/20 03:55:15;;;;;;;1999.90;999.90;;;;;;;-144.65;100.00;64500.88;5016660;28;20497;-78
2022/09/20 03:57:59;;;;;;;1999.90;999.90;;;;;;;-144.65;100.00;64500.88;5016964;28;20711;-78
2022/09/20 04:01:15;;;;;;;1999.90;999.90;;;;;;;-144.65;100.00;64500.88;5017848;28;20438;-78
2022/09/20 04:04:06;;;;;;;1999.90;999.90;;;;;;;-144.65;100.00;64500.88;4959716;28;20504;-78
2022/09/20 04:06:58;;;;;;;1999.90;999.90;;;;;;;-144.65;100.00;64500.88;5018720;28;20038;-78
2022/09/20 04:10:01;;;;;;;1999.90;999.90;;;;;;;-144.65;100.00;64500.88;5016800;28;20058;-78
2022/09/20 04:12:38;;;;;;;1999.90;999.90;;;;;;;-144.65;100.00;64500.88;5019192;28;20033;-78
2022/09/20 04:15:46;;;;;;;1999.90;999.90;;;;;;;-144.65;100.00;64500.88;5018432;28;20069;-76
2022/09/20 04:18:30;;;;;;;1999.90;999.90;;;;;;;-144.65;100.00;64500.88;5024061;28;20034;-77
2022/09/20 04:21:22;;;;;;;1999.90;999.90;;;;;;;-144.65;100.00;64500.88;5031764;28;20032;-78
2022/09/20 04:24:09;;;;;;;1999.90;999.90;;;;;;;-144.65;100.00;64500.88;5031357;28;20101;-78
2022/09/20 04:26:43;;;;;;;1999.90;999.90;;;;;;;-144.65;100.00;64500.88;5018957;28;20034;-78
2022/09/20 04:29:57;;;;;;;1999.90;999.90;;;;;;;-144.65;100.00;64500.88;5001338;28;20429;-77
2022/09/20 04:32:35;;;;;;;1999.90;999.90;;;;;;;-144.65;100.00;64500.88;5018684;28;20041;-77
2022/09/20 04:38:17;;;;;;;1999.90;999.90;;;;;;;-144.65;100.00;64500.88;5014837;28;20084;-78
2022/09/20 04:40:58;;;;;;;1999.90;999.90;;;;;;;-144.65;100.00;64500.88;4992303;28;20030;-77
2022/09/20 04:44:05;;;;;;;1999.90;999.90;;;;;;;-144.65;100.00;64500.88;5002052;28;20046;-79
2022/09/20 04:46:34;;;;;;;1999.90;999.90;;;;;;;-144.65;100.00;64500.88;4987671;28;20031;-78
2022/09/20 04:49:17;;;;;;;1999.90;999.90;;;;;;;-144.65;100.00;64500.88;4998438;28;20749;-78
2022/09/20 04:52:02;;;;;;;1999.90;999.90;;;;;;;-144.65;100.00;64500.88;4998677;28;20037;-78
2022/09/20 04:54:34;;;;;;;1999.90;999.90;;;;;;;-144.65;100.00;64500.88;4997912;28;20478;-78
2022/09/20 04:57:28;;;;;;;1999.90;999.90;;;;;;;-144.65;100.00;64500.88;4996609;28;20041;-78
2022/09/20 05:00:02;;;;;;;1999.90;999.90;;;;;;;-144.65;100.00;64500.88;4998198;28;20026;-78
2022/09/20 05:02:42;;;;;;;1999.90;999.90;;;;;;;-144.65;100.00;64500.88;5012946;28;20474;-78
2022/09/20 05:05:41;;;;;;;1999.90;999.90;;;;;;;-144.65;100.00;64500.88;5019483;28;20112;-78
2022/09/20 05:08:47;;;;;;;1999.90;999.90;;;;;;;-144.65;100.00;64500.88;5011699;28;20046;-77
2022/09/20 05:11:46;;;;;;;1999.90;999.90;;;;;;;-144.65;100.00;64500.88;5016081;28;20036;-77
2022/09/20 05:14:48;;;;;;;1999.90;999.90;;;;;;;-144.65;100.00;64500.88;5024218;28;20034;-78
2022/09/20 05:17:20;;;;;;;1999.90;999.90;;;;;;;-144.65;100.00;64500.88;5025020;28;20033;-78
2022/09/20 05:19:54;;;;;;;1999.90;999.90;;;;;;;-144.65;100.00;64500.88;5031160;28;20113;-79
2022/09/20 05:22:44;;;;;;;1999.90;999.90;;;;;;;-144.65;100.00;64500.88;5035733;28;20084;-76
2022/09/20 05:25:28;;;;;;;1999.90;999.90;;;;;;;-144.65;100.00;64500.88;5021713;28;20128;-76
2022/09/20 05:28:09;;;;;;;1999.90;999.90;;;;;;;-144.65;100.00;64500.88;5019888;28;20045;-78
2022/09/20 05:30:44;;;;;;;1999.90;999.90;;;;;;;-144.65;100.00;64500.88;5022989;28;20151;-77
2022/09/20 05:33:24;;;;;;;1999.90;999.90;;;;;;;-144.65;100.00;64500.88;5020867;28;20037;-77
2022/09/20 05:35:56;;;;;;;1999.90;999.90;;;;;;;-144.65;100.00;64500.88;5023773;28;20048;-76
2022/09/20 05:38:46;;;;;;;1999.90;999.90;;;;;;;-144.65;100.00;64500.88;5027190;28;20076;-76
2022/09/20 05:41:41;;;;;;;1999.90;999.90;;;;;;;-144.65;100.00;64500.88;5033429;28;20021;-76
2022/09/20 05:44:48;;;;;;;1999.90;999.90;;;;;;;-144.65;100.00;64500.88;5033647;28;20025;-76
2022/09/20 05:47:23;;;;;;;1999.90;999.90;;;;;;;-144.65;100.00;64500.88;4944721;29;20035;-76
2022/09/20 05:50:14;;;;;;;1999.90;999.90;;;;;;;-144.65;100.00;64500.88;4938566;29;20114;-76
2022/09/20 05:53:06;;;;;;;1999.90;999.90;;;;;;;-144.65;100.00;64500.88;4997968;28;20490;-77
2022/09/20 05:55:37;;;;;;;1999.90;999.90;;;;;;;-144.65;100.00;64500.88;4993934;28;20026;-77
2022/09/20 05:58:25;;;;;;;1999.90;999.90;;;;;;;-144.65;100.00;64500.88;4978533;28;20026;-78
2022/09/20 06:01:09;;;;;;;1999.90;999.90;;;;;;;-144.65;100.00;64500.88;5002841;28;20034;-77
2022/09/20 06:03:54;;;;;;;1999.90;999.90;;;;;;;-144.65;100.00;64500.88;4981338;28;20118;-77
2022/09/20 06:06:42;;;;;;;1999.90;999.90;;;;;;;-144.65;100.00;64500.88;4962066;28;20073;-77
2022/09/20 06:09:08;;;;;;;1999.90;999.90;;;;;;;-144.65;100.00;64500.88;4997468;28;20046;-77
2022/09/20 06:11:55;;;;;;;1999.90;999.90;;;;;;;-144.65;100.00;64500.88;5015813;28;20030;-80
2022/09/20 06:14:38;;;;;;;1999.90;999.90;;;;;;;-144.65;100.00;64500.88;5017384;28;20510;-73
2022/09/20 06:17:26;;;;;;;1999.90;999.90;;;;;;;-144.65;100.00;64500.88;5012617;28;20057;-73
2022/09/20 06:20:24;;;;;;;1999.90;999.90;;;;;;;-144.65;100.00;64500.88;5013268;28;20021;-73
2022/09/20 06:22:55;;;;;;;1999.90;999.90;;;;;;;-144.65;100.00;64500.88;4992703;28;20054;-73
2022/09/20 06:25:38;;;;;;;1999.90;999.90;;;;;;;-144.65;100.00;64500.88;4993819;28;20038;-74
2022/09/20 06:28:12;;;;;;;1999.90;999.90;;;;;;;-144.65;100.00;64500.88;4993661;28;20056;-73
2022/09/20 06:30:46;;;;;;;1999.90;999.90;;;;;;;-144.65;100.00;64500.88;4993465;28;20037;-73
2022/09/20 06:33:11;;;;;;;1999.90;999.90;;;;;;;-144.65;100.00;64500.88;5006238;28;20121;-75
2022/09/20 06:35:42;;;;;;;1999.90;999.90;;;;;;;-144.65;100.00;64500.88;5014223;28;20556;-73
2022/09/20 06:41:28;;;;;;;1999.90;999.90;;;;;;;-144.65;100.00;64500.88;5040139;28;20029;-78
2022/09/20 06:43:57;;;;;;;1999.90;999.90;;;;;;;-144.65;100.00;64500.88;5040328;28;20077;-78
2022/09/20 06:46:28;;;;;;;1999.90;999.90;;;;;;;-144.65;100.00;64500.88;5040185;28;20041;-77
2022/09/20 06:48:54;;;;;;;1999.90;999.90;;;;;;;-144.65;100.00;64500.88;5040133;28;20022;-77
2022/09/20 06:51:21;;;;;;;1999.90;999.90;;;;;;;-144.65;100.00;64500.88;5039943;28;20114;-78
2022/09/20 06:53:47;;;;;;;1999.90;999.90;;;;;;;-144.65;100.00;64500.88;5039917;28;20037;-78
2022/09/20 06:56:19;;;;;;;1999.90;999.90;;;;;;;-144.65;100.00;64500.88;5040310;28;20010;-77
2022/09/20 06:58:45;;;;;;;1999.90;999.90;;;;;;;-144.65;100.00;64500.88;5020251;28;20034;-78
2022/09/20 07:01:12;;;;;;;1999.90;999.90;;;;;;;-144.65;100.00;64500.88;5010162;28;20084;-78
2022/09/20 07:03:38;;;;;;;1999.90;999.90;;;;;;;-144.65;100.00;64500.88;5014460;28;20112;-78
2022/09/20 07:06:04;;;;;;;1999.90;999.90;;;;;;;-144.65;100.00;64500.88;5015492;28;20450;-79
2022/09/20 07:08:29;;;;;;;1999.90;999.90;;;;;;;-144.65;100.00;64500.88;5016371;28;20046;-78
2022/09/20 07:10:54;;;;;;;1999.90;999.90;;;;;;;-144.65;100.00;64500.88;5015876;28;20038;-78
2022/09/20 07:13:21;;;;;;;1999.90;999.90;;;;;;;-144.65;100.00;64500.88;5014628;28;20022;-78
2022/09/20 07:15:46;;;;;;;1999.90;999.90;;;;;;;-144.65;100.00;64500.88;5014418;28;20033;-77
2022/09/20 07:18:12;;;;;;;1999.90;999.90;;;;;;;-144.65;100.00;64500.88;5015524;28;20109;-79
2022/09/20 07:20:37;;;;;;;1999.90;999.90;;;;;;;-144.65;100.00;64500.88;5019835;28;20026;-78
2022/09/20 07:23:02;;;;;;;1999.90;999.90;;;;;;;-144.65;100.00;64500.88;5017882;28;20026;-79
2022/09/20 07:25:30;;;;;;;1999.90;999.90;;;;;;;-144.65;100.00;64500.88;5019032;28;20026;-78
2022/09/20 07:27:56;;;;;;;1999.90;999.90;;;;;;;-144.65;100.00;64500.88;5017325;28;20037;-77
2022/09/20 07:30:22;;;;;;;1999.90;999.90;;;;;;;-144.65;100.00;64500.88;5016998;28;20034;-78
2022/09/20 07:32:49;;;;;;;1999.90;999.90;;;;;;;-144.65;100.00;64500.88;5015169;28;20025;-78
2022/09/20 07:35:15;;;;;;;1999.90;999.90;;;;;;;-144.65;100.00;64500.88;5016352;28;20025;-78
2022/09/20 07:37:40;;;;;;;1999.90;999.90;;;;;;;-144.65;100.00;64500.88;5014818;28;20026;-77
2022/09/20 07:40:08;;;;;;;1999.90;999.90;;;;;;;-144.65;100.00;64500.88;5014186;28;20073;-78
2022/09/20 07:42:33;;;;;;;1999.90;999.90;;;;;;;-144.65;100.00;64500.88;5014934;28;20033;-78
2022/09/20 07:45:00;;;;;;;1999.90;999.90;;;;;;;-144.65;100.00;64500.88;4998448;28;20080;-78
2022/09/20 07:47:30;;;;;;;1999.90;999.90;;;;;;;-144.65;100.00;64500.88;5015291;28;20036;-77
2022/09/20 07:49:55;;;;;;;1999.90;999.90;;;;;;;-144.65;100.00;64500.88;5013402;28;20113;-78
2022/09/20 07:52:21;;;;;;;1999.90;999.90;;;;;;;-144.65;100.00;64500.88;5013490;28;20509;-78
2022/09/20 07:54:47;;;;;;;1999.90;999.90;;;;;;;-144.65;100.00;64500.88;5013602;28;20490;-77
2022/09/20 07:57:12;;;;;;;1999.90;999.90;;;;;;;-144.65;100.00;64500.88;5014247;28;20053;-78
2022/09/20 07:59:38;;;;;;;1999.90;999.90;;;;;;;-144.65;100.00;64500.88;5014278;28;20061;-78
2022/09/20 08:02:03;;;;;;;1999.90;999.90;;;;;;;-144.65;100.00;64500.88;5013683;28;20116;-77
2022/09/20 08:04:28;;;;;;;1999.90;999.90;;;;;;;-144.65;100.00;64500.88;4995247;28;20033;-77
2022/09/20 08:06:54;;;;;;;1999.90;999.90;;;;;;;-144.65;100.00;64500.88;5012930;28;20030;-78
2022/09/20 08:09:19;;;;;;;1999.90;999.90;;;;;;;-144.65;100.00;64500.88;5013418;28;20120;-78
2022/09/20 08:11:45;;;;;;;1999.90;999.90;;;;;;;-144.65;100.00;64500.88;5013846;28;20037;-79
2022/09/20 08:14:16;;;;;;;1999.90;999.90;;;;;;;-144.65;100.00;64500.88;5021709;28;20101;-77
2022/09/20 08:16:45;;;;;;;1999.90;999.90;;;;;;;-144.65;100.00;64500.88;5020219;28;20037;-77
2022/09/20 08:19:20;;;;;;;1999.90;999.90;;;;;;;-144.65;100.00;64500.88;5019507;28;20021;-77
2022/09/20 08:21:46;;;;;;;1999.90;999.90;;;;;;;-144.65;100.00;64500.88;5014464;28;20018;-77
2022/09/20 08:24:12;;;;;;;1999.90;999.90;;;;;;;-144.65;100.00;64500.88;5026846;28;20032;-81
2022/09/20 08:26:37;;;;;;;1999.90;999.90;;;;;;;-144.65;100.00;64500.88;5028654;28;20021;-83
2022/09/20 08:29:04;;;;;;;1999.90;999.90;;;;;;;-144.65;100.00;64500.88;5029110;28;20034;-82
2022/09/20 08:31:33;;;;;;;1999.90;999.90;;;;;;;-144.65;100.00;64500.88;5027929;28;20018;-80
2022/09/20 08:34:02;;;;;;;1999.90;999.90;;;;;;;-144.65;100.00;64500.88;5021850;28;20734;-79
2022/09/20 08:36:29;;;;;;;1999.90;999.90;;;;;;;-144.65;100.00;64500.88;5038482;28;20017;-77
2022/09/20 08:38:55;;;;;;;1999.90;999.90;;;;;;;-144.65;100.00;64500.88;5038683;28;20022;-83
2022/09/20 08:41:20;;;;;;;1999.90;999.90;;;;;;;-144.65;100.00;64500.88;5050002;28;20044;-79
2022/09/20 08:43:53;;;;;;;1999.90;999.90;;;;;;;-144.65;100.00;64500.88;5044311;28;20065;-80
2022/09/20 08:46:24;;;;;;;1999.90;999.90;;;;;;;-144.65;100.00;64500.88;5030580;28;20266;-84
2022/09/20 08:48:51;;;;;;;1999.90;999.90;;;;;;;-144.65;100.00;64500.88;5034745;28;20113;-82
2022/09/20 08:51:18;;;;;;;1999.90;999.90;;;;;;;-144.65;100.00;64500.88;5029593;28;20052;-86
2022/09/20 08:53:54;;;;;;;1999.90;999.90;;;;;;;-144.65;100.00;64500.88;5031335;28;20470;-84
2022/09/20 08:56:21;;;;;;;1999.90;999.90;;;;;;;-144.65;100.00;64500.88;5032684;28;20019;-85
2022/09/20 08:58:47;;;;;;;1999.90;999.90;;;;;;;-144.65;100.00;64500.88;5023720;28;20616;-88
2022/09/20 09:01:21;;;;;;;1999.90;999.90;;;;;;;-144.65;100.00;64500.88;5008265;28;20046;-83
2022/09/20 09:03:50;;;;;;;1999.90;999.90;;;;;;;-144.65;100.00;64500.88;5027521;28;20059;-84
2022/09/20 09:06:19;;;;;;;1999.90;999.90;;;;;;;-144.65;100.00;64500.88;5023848;28;20093;-85
2022/09/20 09:08:46;;;;;;;1999.90;999.90;;;;;;;-144.65;100.00;64500.88;5017875;28;20499;-86
2022/09/20 09:11:14;;;;;;;1999.90;999.90;;;;;;;-144.65;100.00;64500.88;5013387;28;20042;-85
2022/09/20 09:13:54;;;;;;;1999.90;999.90;;;;;;;-144.65;100.00;64500.88;5017760;28;20072;-85
2022/09/20 09:16:23;;;;;;;1999.90;999.90;;;;;;;-144.65;100.00;64500.88;5018937;28;20034;-86
2022/09/20 09:18:50;;;;;;;1999.90;999.90;;;;;;;-144.65;100.00;64500.88;5000264;28;20041;-87
2022/09/20 09:21:28;;;;;;;1999.90;999.90;;;;;;;-144.65;100.00;64500.88;5018646;28;20022;-84
2022/09/20 09:24:02;;;;;;;1999.90;999.90;;;;;;;-144.65;100.00;64500.88;5018367;28;20112;-85
2022/09/20 09:26:35;;;;;;;1999.90;999.90;;;;;;;-144.65;100.00;64500.88;5018735;28;20130;-84
2022/09/20 09:29:26;;;;;;;1999.90;999.90;;;;;;;-144.65;100.00;64500.88;5017634;28;20025;-84
2022/09/20 09:31:55;;;;;;;1999.90;999.90;;;;;;;-144.65;100.00;64500.88;4998399;28;20068;-86
2022/09/20 09:34:32;;;;;;;1999.90;999.90;;;;;;;-144.65;100.00;64500.88;5018052;28;20026;-83
2022/09/20 09:36:58;;;;;;;1999.90;999.90;;;;;;;-144.65;100.00;64500.88;5016891;28;20108;-86
2022/09/20 09:39:29;;;;;;;1999.90;999.90;;;;;;;-144.65;100.00;64500.88;5017817;28;20060;-84
2022/09/20 09:41:56;;;;;;;1999.90;999.90;;;;;;;-144.65;100.00;64500.88;5017668;28;20021;-84
2022/09/20 09:44:28;;;;;;;1999.90;999.90;;;;;;;-144.65;100.00;64500.88;5018646;28;20472;-85
2022/09/20 09:46:56;;;;;;;1999.90;999.90;;;;;;;-144.65;100.00;64500.88;5018757;28;20486;-82
2022/09/20 09:49:22;;;;;;;1999.90;999.90;;;;;;;-144.65;100.00;64500.88;5027551;28;20057;-86
2022/09/20 09:52:13;;;;;;;1999.90;999.90;;;;;;;-144.65;100.00;64500.88;5027071;28;20034;-84
2022/09/20 09:54:43;;;;;;;1999.90;999.90;;;;;;;-144.65;100.00;64500.88;5027341;28;20049;-85
2022/09/20 09:57:34;;;;;;;1999.90;999.90;;;;;;;-144.65;100.00;64500.88;5024245;28;20021;-85
2022/09/20 10:00:12;;;;;;;1999.90;999.90;;;;;;;-144.65;100.00;64500.88;5028649;28;20030;-85
2022/09/20 10:02:46;;;;;;;1999.90;999.90;;;;;;;-144.65;100.00;64500.88;5023928;28;20482;-85
2022/09/20 10:05:23;;;;;;;;;;;;;;;-144.65;100.00;64500.88;5033910;28;20026;-84
2022/09/20 10:07:54;;;;;;;1999.90;999.90;;;;;;;-144.65;100.00;64500.88;5022489;28;19924;-84
2022/09/20 10:10:51;;;;;;;1999.90;999.90;;;;;;;-144.65;100.00;64500.88;5003750;28;20053;-87
2022/09/20 10:13:28;;;;;;;1999.90;999.90;;;;;;;-144.65;100.00;64500.88;5002014;28;20038;-81
2022/09/20 10:16:12;;;;;;;1999.90;999.90;;;;;;;-144.65;100.00;64500.88;5019671;28;20391;-86
2022/09/20 10:18:51;;;;;;;1999.90;999.90;;;;;;;-144.65;100.00;64500.88;5026195;28;20030;-84
2022/09/20 10:21:55;;;;;;;1999.90;999.90;;;;;;;-144.65;100.00;64500.88;5010613;28;20025;-85
2022/09/20 10:24:29;;;;;;;1999.90;999.90;;;;;;;-144.65;100.00;64500.88;4999950;28;20042;-89
2022/09/20 10:27:00;;;;;;;1999.90;999.90;;;;;;;-144.65;100.00;64500.88;5031954;28;20024;-84
2022/09/20 10:29:53;;;;;;;1999.90;999.90;;;;;;;-144.65;100.00;64500.88;5031423;28;20029;-85
2022/09/20 10:32:48;;;;;;;1999.90;999.90;;;;;;;-144.65;100.00;64500.88;5031657;28;20026;-81
2022/09/20 10:35:25;;;;;;;1999.90;999.90;;;;;;;-144.65;100.00;64500.88;5009048;28;20063;-82
2022/09/20 10:37:59;;;;;;;1999.90;999.90;;;;;;;-144.65;100.00;64500.88;5024972;28;20399;-84
2022/09/20 10:43:50;;;;;;;1999.90;999.90;;;;;;;-144.65;100.00;64500.88;5026006;28;20120;-83
2022/09/20 10:47:14;;;;;;;1999.90;999.90;;;;;;;-144.65;100.00;64500.88;5008361;28;20394;-86
2022/09/20 10:50:28;;;;;;;1999.90;999.90;;;;;;;-144.65;100.00;64500.88;4962714;28;20023;-86
2022/09/20 10:52:55;;;;;;;1999.90;999.90;;;;;;;-144.65;100.00;64500.88;4952318;28;20060;-85
2022/09/20 10:55:30;;;;;;;1999.90;999.90;;;;;;;-144.65;100.00;64500.88;5023002;28;20058;-84
2022/09/20 10:58:20;;;;;;;1999.90;999.90;;;;;;;-144.65;100.00;64500.88;5028117;28;20097;-84
2022/09/20 11:00:48;;;;;;;1999.90;999.90;;;;;;;-144.65;100.00;64500.88;5030378;28;20029;-87
2022/09/20 11:03:50;;;;;;;1999.90;999.90;;;;;;;-144.65;100.00;64500.88;5025911;28;20457;-88
2022/09/20 11:06:24;;;;;;;1999.90;999.90;;;;;;;-144.65;100.00;64500.88;5030559;28;20052;-85
2022/09/20 11:08:55;;;;;;;1999.90;999.90;;;;;;;-144.65;100.00;64500.88;5032225;28;20037;-79
2022/09/20 11:11:49;;;;;;;1999.90;999.90;;;;;;;-144.65;100.00;64500.88;5042788;28;20083;-79
2022/09/20 11:14:21;;;;;;;1999.90;999.90;;;;;;;-144.65;100.00;64500.88;5057384;28;20034;-75
2022/09/20 11:16:55;;;;;;;1999.90;999.90;;;;;;;-144.65;100.00;64500.88;5059630;28;20018;-76
2022/09/20 11:19:30;;;;;;;1999.90;999.90;;;;;;;-144.65;100.00;64500.88;5059461;28;20025;-79
2022/09/20 11:22:00;;;;;;;1999.90;999.90;;;;;;;-144.65;100.00;64500.88;5059257;28;20033;-81
2022/09/20 11:24:48;;;;;;;1999.90;999.90;;;;;;;-144.65;100.00;64500.88;5043233;28;20018;-86
2022/09/20 11:27:30;;;;;;;1999.90;999.90;;;;;;;-144.65;100.00;64500.88;5058855;28;20016;-87
2022/09/20 11:30:13;;;;;;;1999.90;999.90;;;;;;;-144.65;100.00;64500.88;5059091;28;20021;-77